Mosby, MO

9:18 AM CST on January 31, 2015 (GMT -0600)
Kansas City Downtown | Change Station
CLOSE
Current Station
Airport
Location: Kansas City,
Elevation: 758 ft
Nearby Weather Stations

Elev 758 ft 39.12 °N, 94.60 °W | Updated 24 minutes ago

Ice Pellets
Ice Pellets
36 °F
Feels Like 32 °F
N
5
Wind Variable Wind from NE

Today
High -- | Low -- °F
--% Chance of Precip.
Yesterday
High -- | Low -- °F
Precip. -- in
7:25 AM 5:36 PM
Waxing Gibbous, 90% visible
Pressure 30.27 in
Visibility 5.0 miles
Clouds Overcast 2500 ft
Windchill 32 °F
Dew Point 34 °F
Humidity 93%
Rainfall 0.03 in
Snow Depth Not available.
UV 0 out of 12
Pollen .10 out of 12
Air Quality Not available.
Flu Activity Not available.
METAR KMKC 311454Z 05004KT 5SM -RA BR OVC025 02/01 A3025 RMK AO2 SLP248 P0003 60003 T00220011 55005

More Conditions Fewer Conditions

Pressure 30.27 in
Visibility 5.0 miles
Clouds Overcast 2500 ft
Windchill 32 °F
Dew Point 34 °F
Humidity 93%
Rainfall 0.03 in
Snow Depth Not available.
UV 0 out of 12
Pollen .10 out of 12
Air Quality Not available.
Flu Activity Not available.
METAR KMKC 311454Z 05004KT 5SM -RA BR OVC025 02/01 A3025 RMK AO2 SLP248 P0003 60003 T00220011 55005

More Conditions Fewer Conditions

10-Day Weather Forecast

Almanac

Astronomy

Jan. 31, 2015 Rise Set
Actual Time
Civil Twilight
Nautical Twilight
Astronomical Twilight
Moon
Length of Visible Light
Length of Day
Tomorrow will be .
, % of the Moon is Illuminated

Today's Extremes

State Highs State Lows

Community

WunderPhotos

Upload Photos

1,792,084 photos uploaded!

WunderBlogs® & News

Nearby

Air Quality

  Air Quality AQ Index Pollutant
Not available.

Snow Depth

Station Depth Elevation

Earthquake Activity

City Distance Mag. Time & Date
Minimum magnitude displayed is 2.5.

Coastal Water Temperatures

Place Temperature

Nearby Weather Stations